Terminal Aerodrome Forecast
Issued by NWS Des Moines, IA

Home | Current Version | Previous Version | Text Only | Print | Product List | Glossary On
Versions: 1 2 3 4 5 6 7 8 9 10 11 12 13 14 15 16 17 18 19 20 21 22 23 24 25 26
000
FTUS43 KDMX 190525 AAC
TAFDSM
TAF AMD
KDSM 190525Z 1905/2006 17007KT 3/4SM BR OVC003
     FM191600 12006KT 5SM BR BKN010
     FM200100 10005KT 2SM BR OVC005=

USA.gov is the U.S. government's official web portal to all federal, state and local government web resources and services.